createdAt,value
2023-04-02T00:00:20.734Z,81.46
2023-04-02T00:01:22.800Z,81.84
2023-04-02T00:02:26.335Z,81.97
2023-04-02T00:03:43.809Z,81.57
2023-04-02T00:04:45.593Z,82.25
2023-04-02T00:05:50.930Z,82.21
2023-04-02T00:06:55.545Z,82.40
2023-04-02T00:08:19.297Z,82.31
2023-04-02T00:09:33.171Z,82.17
2023-04-02T00:10:37.897Z,82.49
2023-04-02T00:11:45.671Z,82.21
2023-04-02T00:13:04.458Z,82.51
2023-04-02T00:14:15.696Z,82.25
2023-04-02T00:15:17.333Z,82.43
2023-04-02T00:16:23.512Z,82.63
2023-04-02T00:17:25.605Z,82.23
2023-04-02T00:18:27.812Z,82.73
2023-04-02T00:19:37.258Z,82.30
2023-04-02T00:20:42.124Z,82.48
2023-04-02T00:21:44.505Z,82.96
2023-04-02T00:22:46.476Z,82.93
2023-04-02T00:23:48.457Z,82.52
2023-04-02T00:24:52.879Z,82.47
2023-04-02T00:25:54.592Z,82.66
2023-04-02T00:26:56.334Z,82.41
2023-04-02T00:27:58.116Z,82.74
2023-04-02T00:29:01.304Z,82.34
2023-04-02T00:30:04.283Z,82.63
2023-04-02T00:31:06.269Z,82.41
2023-04-02T00:32:17.675Z,82.56
2023-04-02T00:33:22.510Z,82.24
2023-04-02T00:34:30.999Z,82.08
2023-04-02T00:35:33.436Z,83.13
2023-04-02T00:36:35.246Z,82.05
2023-04-02T00:37:42.177Z,83.04
2023-04-02T00:38:46.688Z,82.56
2023-04-02T00:39:50.626Z,82.54
2023-04-02T00:40:55.111Z,82.78
2023-04-02T00:42:07.413Z,82.50
2023-04-02T00:43:16.504Z,82.87
2023-04-02T00:44:21.922Z,83.10
2023-04-02T00:45:28.791Z,83.43
2023-04-02T00:46:37.228Z,82.69
2023-04-02T00:47:39.302Z,82.59
2023-04-02T00:48:43.393Z,82.58
2023-04-02T00:49:45.604Z,82.97
2023-04-02T00:50:48.142Z,82.89
2023-04-02T00:51:51.672Z,82.89
2023-04-02T00:52:54.446Z,82.98
2023-04-02T00:53:58.370Z,82.85
2023-04-02T00:55:11.891Z,83.02
2023-04-02T00:56:22.023Z,82.37
2023-04-02T00:57:26.615Z,82.57
2023-04-02T00:58:32.217Z,83.09
2023-04-02T01:00:08.261Z,82.75
2023-04-02T01:01:21.570Z,82.95
2023-04-02T01:02:30.464Z,83.29
2023-04-02T01:03:36.541Z,83.33
2023-04-02T01:04:38.915Z,83.81
2023-04-02T01:05:42.522Z,83.05
2023-04-02T01:06:45.948Z,83.11
2023-04-02T01:07:57.136Z,83.01
2023-04-02T01:09:19.608Z,82.81
2023-04-02T01:10:43.615Z,82.46
2023-04-02T01:11:59.340Z,83.13
2023-04-02T01:13:07.708Z,82.07
2023-04-02T01:14:36.773Z,82.78
2023-04-02T01:15:42.276Z,82.26
2023-04-02T01:17:01.628Z,82.56
2023-04-02T01:18:21.608Z,83.94
2023-04-02T01:19:42.454Z,83.29
2023-04-02T01:21:08.826Z,83.93
2023-04-02T01:22:37.603Z,83.55
2023-04-02T01:23:52.739Z,83.29
2023-04-02T01:24:58.901Z,83.37
2023-04-02T01:26:28.298Z,83.77
2023-04-02T01:27:40.890Z,83.50
2023-04-02T01:29:00.567Z,83.12
2023-04-02T01:30:03.156Z,83.77
2023-04-02T01:31:05.016Z,83.68
2023-04-02T01:32:12.322Z,83.16
2023-04-02T01:33:15.385Z,83.40
2023-04-02T01:34:20.158Z,83.86
2023-04-02T01:35:22.904Z,84.22
2023-04-02T01:36:41.268Z,84.40
2023-04-02T01:38:02.076Z,84.16
2023-04-02T01:39:39.867Z,84.11
2023-04-02T01:40:53.254Z,84.73
2023-04-02T01:42:01.525Z,84.54
2023-04-02T01:43:06.131Z,84.63
2023-04-02T01:44:08.372Z,84.95
2023-04-02T01:45:13.815Z,84.61
2023-04-02T01:46:29.518Z,84.79
2023-04-02T01:47:33.126Z,84.71
2023-04-02T01:48:34.942Z,84.95
2023-04-02T01:49:36.677Z,85.00
2023-04-02T01:50:39.492Z,84.99
2023-04-02T01:51:45.492Z,85.02
2023-04-02T01:52:54.231Z,84.56
2023-04-02T01:53:56.780Z,84.68
2023-04-02T01:54:58.433Z,84.82
2023-04-02T01:56:02.697Z,84.71
2023-04-02T01:57:05.132Z,84.95
2023-04-02T01:58:06.686Z,84.76
2023-04-02T01:59:11.001Z,83.98
2023-04-02T02:00:16.088Z,84.45
2023-04-02T02:01:23.428Z,85.02
2023-04-02T02:02:26.590Z,84.73
2023-04-02T02:03:28.615Z,84.48
2023-04-02T02:04:31.600Z,85.81
2023-04-02T02:05:33.575Z,84.65
2023-04-02T02:06:36.144Z,84.73
2023-04-02T02:07:37.785Z,84.84
2023-04-02T02:08:49.969Z,84.93
2023-04-02T02:09:52.694Z,84.28
2023-04-02T02:10:54.444Z,85.27
2023-04-02T02:11:57.876Z,84.56
2023-04-02T02:13:00.396Z,84.51
2023-04-02T02:14:34.035Z,85.16
2023-04-02T02:15:36.455Z,84.20
2023-04-02T02:16:41.946Z,84.06
2023-04-02T02:17:44.773Z,84.83
2023-04-02T02:18:50.213Z,84.25
2023-04-02T02:19:54.944Z,84.29
2023-04-02T02:21:00.798Z,84.48
2023-04-02T02:22:08.036Z,86.18
2023-04-02T02:23:10.933Z,85.27
2023-04-02T02:24:21.146Z,85.16
2023-04-02T02:25:25.987Z,84.31
2023-04-02T02:26:28.517Z,84.51
2023-04-02T02:27:30.666Z,84.83
2023-04-02T02:28:43.159Z,84.79
2023-04-02T02:29:47.170Z,84.46
2023-04-02T02:31:12.947Z,85.05
2023-04-02T02:32:15.653Z,84.69
2023-04-02T02:33:24.058Z,83.95
2023-04-02T02:34:35.155Z,85.24
2023-04-02T02:35:50.942Z,84.70
2023-04-02T02:36:58.325Z,85.34
2023-04-02T02:38:20.971Z,84.77
2023-04-02T02:39:27.414Z,85.00
2023-04-02T02:40:39.523Z,84.51
2023-04-02T02:41:51.190Z,84.38
2023-04-02T02:42:56.411Z,84.96
2023-04-02T02:44:10.809Z,84.20
2023-04-02T02:45:13.549Z,84.02
2023-04-02T02:46:18.478Z,84.51
2023-04-02T02:47:25.818Z,84.47
2023-04-02T02:48:34.903Z,83.86
2023-04-02T02:49:40.014Z,84.54
2023-04-02T02:50:42.754Z,85.02
2023-04-02T02:51:49.251Z,84.34
2023-04-02T02:52:58.696Z,84.78
2023-04-02T02:54:03.199Z,84.08
2023-04-02T02:55:16.103Z,83.91
2023-04-02T02:56:28.065Z,83.69
2023-04-02T02:57:32.339Z,83.94
2023-04-02T02:58:34.423Z,83.89
2023-04-02T03:00:07.938Z,83.74
2023-04-02T03:01:10.157Z,84.13
2023-04-02T03:02:16.358Z,84.79
2023-04-02T03:03:24.865Z,84.78
2023-04-02T03:04:35.646Z,84.89
2023-04-02T03:05:40.823Z,84.69
2023-04-02T03:06:53.644Z,85.08
2023-04-02T03:07:58.400Z,84.57
2023-04-02T03:09:17.588Z,84.12
2023-04-02T03:10:30.604Z,84.38
2023-04-02T03:11:52.599Z,84.78
2023-04-02T03:13:21.940Z,84.85
2023-04-02T03:14:34.105Z,84.93
2023-04-02T03:15:45.507Z,83.93
2023-04-02T03:16:51.454Z,83.84
2023-04-02T03:18:00.791Z,84.04
2023-04-02T03:19:11.204Z,84.23
2023-04-02T03:20:44.318Z,83.64
2023-04-02T03:21:53.247Z,84.00
2023-04-02T03:23:04.175Z,83.62
2023-04-02T03:24:13.898Z,84.69
2023-04-02T03:25:22.083Z,84.85
2023-04-02T03:26:34.954Z,84.99
2023-04-02T03:27:42.332Z,85.34
2023-04-02T03:28:48.153Z,84.37
2023-04-02T03:30:13.011Z,84.90
2023-04-02T03:31:42.452Z,84.72
2023-04-02T03:32:46.482Z,85.00
2023-04-02T03:33:52.491Z,84.26
2023-04-02T03:35:00.400Z,84.29
2023-04-02T03:36:30.972Z,85.79
2023-04-02T03:37:39.680Z,84.39
2023-04-02T03:38:47.369Z,84.61
2023-04-02T03:40:01.328Z,84.25
2023-04-02T03:41:14.252Z,84.38
2023-04-02T03:42:16.749Z,83.71
2023-04-02T03:43:25.635Z,84.42
2023-04-02T03:44:33.749Z,85.32
2023-04-02T03:45:41.813Z,84.64
2023-04-02T03:46:49.720Z,84.74
2023-04-02T03:47:55.557Z,84.43
2023-04-02T03:49:09.929Z,84.61
2023-04-02T03:50:28.950Z,83.58
2023-04-02T03:51:37.886Z,84.25
2023-04-02T03:52:39.782Z,84.77
2023-04-02T03:53:46.844Z,84.73
2023-04-02T03:54:53.812Z,84.36
2023-04-02T03:55:57.317Z,84.42
2023-04-02T03:56:59.850Z,84.37
2023-04-02T03:58:25.414Z,85.02
2023-04-02T03:59:33.110Z,86.24
2023-04-02T04:00:52.387Z,84.85
2023-04-02T04:01:59.428Z,84.68
2023-04-02T04:03:24.517Z,84.71
2023-04-02T04:04:29.452Z,84.81
2023-04-02T04:05:35.511Z,85.24
2023-04-02T04:06:42.162Z,85.79
2023-04-02T04:07:44.514Z,85.18
2023-04-02T04:09:19.868Z,84.77
2023-04-02T04:10:25.249Z,84.96
2023-04-02T04:11:33.513Z,85.67
2023-04-02T04:12:39.803Z,85.00
2023-04-02T04:14:01.566Z,84.97
2023-04-02T04:15:27.296Z,84.75
2023-04-02T04:16:53.761Z,84.86
2023-04-02T04:18:02.256Z,85.34
2023-04-02T04:19:18.126Z,84.51
2023-04-02T04:20:46.105Z,85.59
2023-04-02T04:21:53.981Z,85.81
2023-04-02T04:23:14.496Z,85.50
2023-04-02T04:24:22.986Z,85.40
2023-04-02T04:25:33.656Z,87.00
2023-04-02T04:26:56.179Z,85.99
2023-04-02T04:28:16.587Z,85.42
2023-04-02T04:29:34.281Z,85.85
2023-04-02T04:30:50.805Z,86.00
2023-04-02T04:31:55.729Z,85.77
2023-04-02T04:33:11.802Z,85.95
2023-04-02T04:34:17.834Z,86.33
2023-04-02T04:35:23.835Z,85.67
2023-04-02T04:36:29.642Z,85.90
2023-04-02T04:37:42.060Z,86.32
2023-04-02T04:38:49.290Z,85.75
2023-04-02T04:39:55.237Z,85.73
2023-04-02T04:41:03.356Z,85.28
2023-04-02T04:42:07.655Z,85.91
2023-04-02T04:43:16.147Z,85.65
2023-04-02T04:44:36.327Z,86.06
2023-04-02T04:46:03.959Z,85.56
2023-04-02T04:47:19.043Z,85.09
2023-04-02T04:48:26.787Z,85.91
2023-04-02T04:49:34.462Z,86.23
2023-04-02T04:51:14.560Z,86.02
2023-04-02T04:52:23.827Z,84.86
2023-04-02T04:53:28.009Z,85.99
2023-04-02T04:54:31.721Z,85.73
2023-04-02T04:55:38.347Z,85.66
2023-04-02T04:56:41.125Z,85.99
2023-04-02T04:57:48.876Z,85.49
2023-04-02T04:58:58.475Z,85.58
2023-04-02T05:00:25.739Z,85.99
2023-04-02T05:01:34.307Z,85.44
2023-04-02T05:02:42.652Z,85.88
2023-04-02T05:03:54.843Z,85.87
2023-04-02T05:04:56.951Z,85.95
2023-04-02T05:06:03.426Z,85.74
2023-04-02T05:07:26.466Z,85.91
2023-04-02T05:08:33.651Z,86.21
2023-04-02T05:09:44.345Z,86.72
2023-04-02T05:10:56.282Z,86.14
2023-04-02T05:12:06.654Z,86.34
2023-04-02T05:13:18.765Z,87.09
2023-04-02T05:14:30.394Z,86.19
2023-04-02T05:15:39.139Z,86.87
2023-04-02T05:16:47.749Z,86.20
2023-04-02T05:18:04.676Z,85.81
2023-04-02T05:19:14.319Z,85.75
2023-04-02T05:20:21.877Z,86.63
2023-04-02T05:21:47.732Z,86.33
2023-04-02T05:22:54.912Z,86.23
2023-04-02T05:24:01.050Z,86.93
2023-04-02T05:25:28.216Z,86.18
2023-04-02T05:26:45.285Z,86.28
2023-04-02T05:28:02.318Z,87.08
2023-04-02T05:29:14.153Z,87.25
2023-04-02T05:30:24.489Z,87.29
2023-04-02T05:31:48.963Z,86.65
2023-04-02T05:32:57.413Z,86.35
2023-04-02T05:34:01.973Z,86.04
2023-04-02T05:35:06.827Z,86.42
2023-04-02T05:36:21.734Z,86.32
2023-04-02T05:37:28.868Z,86.09
2023-04-02T05:38:33.893Z,86.83
2023-04-02T05:39:35.643Z,85.91
2023-04-02T05:40:44.284Z,86.12
2023-04-02T05:41:46.077Z,86.51
2023-04-02T05:42:55.800Z,86.63
2023-04-02T05:44:06.698Z,86.50
2023-04-02T05:45:20.606Z,86.42
2023-04-02T05:46:27.362Z,86.06
2023-04-02T05:47:32.391Z,85.60
2023-04-02T05:48:43.291Z,85.68
2023-04-02T05:49:52.813Z,85.75
2023-04-02T05:50:56.373Z,85.46
2023-04-02T05:52:05.113Z,85.98
2023-04-02T05:53:07.960Z,85.18
2023-04-02T05:54:23.304Z,84.58
2023-04-02T05:55:34.655Z,85.09
2023-04-02T05:56:43.960Z,84.15
2023-04-02T05:58:31.979Z,84.22
2023-04-02T05:59:35.075Z,84.05
2023-04-02T06:00:40.010Z,84.55
2023-04-02T06:01:50.085Z,84.29
2023-04-02T06:03:07.339Z,83.60
2023-04-02T06:04:18.680Z,83.93
2023-04-02T06:05:26.869Z,83.09
2023-04-02T06:06:39.080Z,83.11
2023-04-02T06:07:46.549Z,82.80
2023-04-02T06:08:55.676Z,82.05
2023-04-02T06:10:00.349Z,82.00
2023-04-02T06:11:05.768Z,81.89
2023-04-02T06:12:32.409Z,82.10
2023-04-02T06:13:36.037Z,81.18
2023-04-02T06:14:37.739Z,80.52
2023-04-02T06:15:39.735Z,79.99
2023-04-02T06:16:46.323Z,80.33
2023-04-02T06:17:52.485Z,81.20
2023-04-02T06:18:55.457Z,80.21
2023-04-02T06:19:56.989Z,80.16
2023-04-02T06:20:59.004Z,80.05
2023-04-02T06:22:09.232Z,79.43
2023-04-02T06:23:17.204Z,79.81
2023-04-02T06:24:22.894Z,80.91
2023-04-02T06:25:31.664Z,80.19
2023-04-02T06:26:41.792Z,79.92
2023-04-02T06:27:49.703Z,80.55
2023-04-02T06:29:17.679Z,81.00
2023-04-02T06:30:37.210Z,80.71
2023-04-02T06:31:49.393Z,80.48
2023-04-02T06:32:52.630Z,80.43
2023-04-02T06:33:56.435Z,80.11
2023-04-02T06:34:59.884Z,80.04
2023-04-02T06:36:01.793Z,80.16
2023-04-02T06:37:27.752Z,80.21
2023-04-02T06:38:42.914Z,80.10
2023-04-02T06:39:46.547Z,79.51
2023-04-02T06:40:53.503Z,79.14
2023-04-02T06:42:16.220Z,78.76
2023-04-02T06:43:45.415Z,79.15
2023-04-02T06:45:24.212Z,78.58
2023-04-02T06:46:49.972Z,78.87
2023-04-02T06:47:55.876Z,79.17
2023-04-02T06:49:35.313Z,79.18
2023-04-02T06:50:51.497Z,78.61
2023-04-02T06:51:55.385Z,79.26
2023-04-02T06:53:00.623Z,78.60
2023-04-02T06:54:02.384Z,78.37
2023-04-02T06:55:31.703Z,78.48
2023-04-02T06:56:41.497Z,78.32
2023-04-02T06:57:44.215Z,78.73
2023-04-02T06:58:46.176Z,79.06
2023-04-02T06:59:48.002Z,79.81
2023-04-02T07:00:53.794Z,79.43
2023-04-02T07:02:22.355Z,78.82
2023-04-02T07:03:29.742Z,78.89
2023-04-02T07:04:34.001Z,79.10
2023-04-02T07:05:36.783Z,78.59
2023-04-02T07:06:39.128Z,78.80
2023-04-02T07:07:40.762Z,79.17
2023-04-02T07:08:44.726Z,78.64
2023-04-02T07:09:46.980Z,78.63
2023-04-02T07:10:48.972Z,78.17
2023-04-02T07:11:51.052Z,78.76
2023-04-02T07:12:53.912Z,78.61
2023-04-02T07:13:57.151Z,78.20
2023-04-02T07:15:00.641Z,78.67
2023-04-02T07:16:02.552Z,78.42
2023-04-02T07:17:04.390Z,78.54
2023-04-02T07:18:06.312Z,78.88
2023-04-02T07:19:09.665Z,78.75
2023-04-02T07:20:28.621Z,79.07
2023-04-02T07:21:31.709Z,78.11
2023-04-02T07:22:33.372Z,78.45
2023-04-02T07:23:37.372Z,78.45
2023-04-02T07:24:39.088Z,77.89
2023-04-02T07:25:40.766Z,78.15
2023-04-02T07:26:42.493Z,78.57
2023-04-02T07:27:44.166Z,77.83
2023-04-02T07:28:45.996Z,78.04
2023-04-02T07:29:47.672Z,78.78
2023-04-02T07:30:49.905Z,78.76
2023-04-02T07:31:52.996Z,79.05
2023-04-02T07:32:54.734Z,78.24
2023-04-02T07:33:59.780Z,77.63
2023-04-02T07:35:01.443Z,77.35
2023-04-02T07:36:03.203Z,78.21
2023-04-02T07:37:04.912Z,77.81
2023-04-02T07:38:06.612Z,78.07
2023-04-02T07:39:08.228Z,78.40
2023-04-02T07:40:22.891Z,77.36
2023-04-02T07:41:24.614Z,78.03
2023-04-02T07:42:26.257Z,77.62
2023-04-02T07:43:27.911Z,76.93
2023-04-02T07:44:29.578Z,77.47
2023-04-02T07:45:31.609Z,77.27
2023-04-02T07:46:33.293Z,76.73
2023-04-02T07:47:34.972Z,77.16
2023-04-02T07:48:36.651Z,76.63
2023-04-02T07:49:38.352Z,76.01
2023-04-02T07:50:40.077Z,76.86
2023-04-02T07:51:41.742Z,75.74
2023-04-02T07:52:44.073Z,75.55
2023-04-02T07:53:50.144Z,75.83
2023-04-02T07:54:51.984Z,76.02
2023-04-02T07:55:53.965Z,75.22
2023-04-02T07:56:55.778Z,75.13
2023-04-02T07:57:59.193Z,75.81
2023-04-02T07:59:01.118Z,75.47
2023-04-02T08:00:04.601Z,75.29
2023-04-02T08:01:25.703Z,74.57
2023-04-02T08:02:27.590Z,73.34
2023-04-02T08:03:29.548Z,73.16
2023-04-02T08:04:31.452Z,73.44
2023-04-02T08:05:33.371Z,72.37
2023-04-02T08:06:35.365Z,71.89
2023-04-02T08:07:37.456Z,71.55
2023-04-02T08:08:39.470Z,70.80
2023-04-02T08:09:41.130Z,70.88
2023-04-02T08:10:42.775Z,69.93
2023-04-02T08:11:46.390Z,69.78
2023-04-02T08:12:48.457Z,67.12
2023-04-02T08:13:50.119Z,66.63
2023-04-02T08:14:51.712Z,66.21
2023-04-02T08:15:53.363Z,64.81
2023-04-02T08:16:56.150Z,63.57
2023-04-02T08:17:58.396Z,61.17
2023-04-02T08:19:01.665Z,58.02
2023-04-02T08:20:05.551Z,55.61
2023-04-02T08:21:08.708Z,53.61
2023-04-02T08:22:10.966Z,55.19
2023-04-02T08:23:15.437Z,54.95
2023-04-02T08:24:19.317Z,53.57
2023-04-02T08:25:21.061Z,52.22
2023-04-02T08:26:22.667Z,53.14
2023-04-02T08:27:24.986Z,55.42
2023-04-02T08:28:27.114Z,55.95
2023-04-02T08:29:32.243Z,57.90
2023-04-02T08:30:33.910Z,58.15
2023-04-02T08:31:35.640Z,59.40
2023-04-02T08:32:37.365Z,60.82
2023-04-02T08:33:39.017Z,60.64
2023-04-02T08:34:40.773Z,62.84
2023-04-02T08:35:42.557Z,63.02
2023-04-02T08:36:45.049Z,63.77
2023-04-02T08:37:46.650Z,63.76
2023-04-02T08:38:48.285Z,65.23
2023-04-02T08:39:50.149Z,66.71
2023-04-02T08:40:54.911Z,66.66
2023-04-02T08:42:03.455Z,65.68
2023-04-02T08:43:13.892Z,65.57
2023-04-02T08:44:27.111Z,66.28
2023-04-02T08:46:05.743Z,65.93
2023-04-02T08:47:08.526Z,67.94
2023-04-02T08:48:11.046Z,67.72
2023-04-02T08:49:13.492Z,66.20
2023-04-02T08:50:23.803Z,67.25
2023-04-02T08:51:27.764Z,67.40
2023-04-02T08:52:36.690Z,66.92
2023-04-02T08:53:39.328Z,66.64
2023-04-02T08:54:43.625Z,65.96
2023-04-02T08:55:51.437Z,65.12
2023-04-02T08:56:58.748Z,64.73
2023-04-02T08:58:09.416Z,64.29
2023-04-02T08:59:25.033Z,64.51
2023-04-02T09:00:43.697Z,63.33
2023-04-02T09:02:28.131Z,60.15
2023-04-02T09:03:34.392Z,60.28
2023-04-02T09:04:36.957Z,59.71
2023-04-02T09:05:41.187Z,59.48
2023-04-02T09:06:43.952Z,60.40
2023-04-02T09:07:47.533Z,60.47
2023-04-02T09:08:51.436Z,58.60
2023-04-02T09:09:53.188Z,58.78
2023-04-02T09:11:03.752Z,57.57
2023-04-02T09:12:07.010Z,59.04
2023-04-02T09:13:17.251Z,59.54
2023-04-02T09:14:21.594Z,59.10
2023-04-02T09:15:31.043Z,61.56
2023-04-02T09:16:41.783Z,61.84
2023-04-02T09:17:53.569Z,61.68
2023-04-02T09:18:56.355Z,61.66
2023-04-02T09:20:18.169Z,61.90
2023-04-02T09:21:30.361Z,60.94
2023-04-02T09:22:33.182Z,61.54
2023-04-02T09:23:35.033Z,62.40
2023-04-02T09:24:37.820Z,63.54
2023-04-02T09:25:48.530Z,63.09
2023-04-02T09:26:55.920Z,62.11
2023-04-02T09:28:01.855Z,62.24
2023-04-02T09:29:19.402Z,63.91
2023-04-02T09:30:40.822Z,64.21
2023-04-02T09:31:48.709Z,64.94
2023-04-02T09:32:52.974Z,64.24
2023-04-02T09:33:54.698Z,65.17
2023-04-02T09:35:27.135Z,67.14
2023-04-02T09:36:34.863Z,67.17
2023-04-02T09:37:37.456Z,66.86
2023-04-02T09:38:39.028Z,69.07
2023-04-02T09:39:41.074Z,67.97
2023-04-02T09:40:50.013Z,67.62
2023-04-02T09:42:04.586Z,66.90
2023-04-02T09:43:16.463Z,66.49
2023-04-02T09:44:27.711Z,65.11
2023-04-02T09:45:29.604Z,63.41
2023-04-02T09:46:31.515Z,63.16
2023-04-02T09:47:33.244Z,64.86
2023-04-02T09:48:58.348Z,63.65
2023-04-02T09:50:33.456Z,64.21
2023-04-02T09:51:36.586Z,65.57
2023-04-02T09:52:38.268Z,64.13
2023-04-02T09:53:46.096Z,65.22
2023-04-02T09:55:11.924Z,64.67
2023-04-02T09:56:14.973Z,66.15
2023-04-02T09:57:27.983Z,67.86
2023-04-02T09:58:29.706Z,66.08
2023-04-02T09:59:31.540Z,65.29
2023-04-02T10:00:33.237Z,64.78
2023-04-02T10:01:43.646Z,63.29
2023-04-02T10:02:47.028Z,64.86
2023-04-02T10:03:49.401Z,66.21
2023-04-02T10:04:51.711Z,64.47
2023-04-02T10:06:14.125Z,65.85
2023-04-02T10:07:30.926Z,65.37
2023-04-02T10:08:32.777Z,65.67
2023-04-02T10:09:36.602Z,64.70
2023-04-02T10:10:42.147Z,64.58
2023-04-02T10:13:00.163Z,64.28
2023-04-02T10:14:24.232Z,64.38
2023-04-02T10:15:30.873Z,63.59
2023-04-02T10:16:37.204Z,63.23
2023-04-02T10:17:39.395Z,61.75
2023-04-02T10:18:53.230Z,60.95
2023-04-02T10:20:06.318Z,60.71
2023-04-02T10:21:11.203Z,61.42
2023-04-02T10:22:17.453Z,60.90
2023-04-02T10:23:19.866Z,60.22
2023-04-02T10:24:21.674Z,61.23
2023-04-02T10:25:26.243Z,59.87
2023-04-02T10:27:06.914Z,61.66
2023-04-02T10:28:54.483Z,60.65
2023-04-02T10:30:28.708Z,61.29
2023-04-02T10:32:09.027Z,63.07
2023-04-02T10:33:20.108Z,64.22
2023-04-02T10:34:26.022Z,63.56
2023-04-02T10:35:45.381Z,64.45
2023-04-02T10:36:54.379Z,63.73
2023-04-02T10:37:58.829Z,63.50
2023-04-02T10:39:46.023Z,61.17
2023-04-02T10:41:26.903Z,60.14
2023-04-02T10:42:37.471Z,59.60
2023-04-02T10:43:51.192Z,57.96
2023-04-02T10:45:03.445Z,59.47
2023-04-02T10:46:11.036Z,57.81
2023-04-02T10:47:33.530Z,56.95
2023-04-02T10:49:12.922Z,57.09
2023-04-02T10:50:48.810Z,59.24
2023-04-02T10:52:00.636Z,55.96
2023-04-02T10:53:13.746Z,56.08
2023-04-02T10:54:30.670Z,58.29
2023-04-02T10:55:40.871Z,58.87
2023-04-02T10:56:50.730Z,59.04
2023-04-02T10:57:54.089Z,58.46
2023-04-02T10:59:01.913Z,58.76
2023-04-02T11:00:06.659Z,57.70
2023-04-02T11:01:16.980Z,56.54
2023-04-02T11:02:28.910Z,55.04
2023-04-02T11:03:37.276Z,55.26
2023-04-02T11:04:42.693Z,55.48
2023-04-02T11:05:48.219Z,55.38
2023-04-02T11:07:13.131Z,54.54
2023-04-02T11:08:23.900Z,55.95
2023-04-02T11:09:27.748Z,55.52
2023-04-02T11:10:33.612Z,54.87
2023-04-02T11:11:44.052Z,53.48
2023-04-02T11:12:57.172Z,57.32
2023-04-02T11:14:01.593Z,57.19
2023-04-02T11:15:04.143Z,56.48
2023-04-02T11:16:06.386Z,57.80
2023-04-02T11:17:14.163Z,59.18
2023-04-02T11:18:38.727Z,58.76
2023-04-02T11:19:40.578Z,56.66
2023-04-02T11:20:48.186Z,58.18
2023-04-02T11:22:06.046Z,56.79
2023-04-02T11:23:18.343Z,56.20
2023-04-02T11:24:33.976Z,58.23
2023-04-02T11:25:36.057Z,57.82
2023-04-02T11:26:42.287Z,56.14
2023-04-02T11:27:44.494Z,57.91
2023-04-02T11:28:46.447Z,58.52
2023-04-02T11:30:03.959Z,57.97
2023-04-02T11:31:05.724Z,57.43
2023-04-02T11:32:27.243Z,58.63
2023-04-02T11:33:37.642Z,58.13
2023-04-02T11:34:40.919Z,56.69
2023-04-02T11:35:42.884Z,56.78
2023-04-02T11:36:50.252Z,56.00
2023-04-02T11:37:52.626Z,57.73
2023-04-02T11:39:01.769Z,57.67
2023-04-02T11:40:12.168Z,56.55
2023-04-02T11:41:13.881Z,55.20
2023-04-02T11:42:18.418Z,57.34
2023-04-02T11:43:35.858Z,56.48
2023-04-02T11:44:37.724Z,57.81
2023-04-02T11:45:52.588Z,57.66
2023-04-02T11:47:16.244Z,55.94
2023-04-02T11:48:17.956Z,57.06
2023-04-02T11:49:59.068Z,57.35
2023-04-02T11:51:04.690Z,57.34
2023-04-02T11:52:20.748Z,58.14
2023-04-02T11:53:27.883Z,58.17
2023-04-02T11:54:31.556Z,57.29
2023-04-02T11:55:35.388Z,58.11
2023-04-02T11:56:47.213Z,59.45
2023-04-02T11:58:01.007Z,58.61
2023-04-02T11:59:13.983Z,56.75
2023-04-02T12:00:24.417Z,58.70
2023-04-02T12:01:33.967Z,57.44
2023-04-02T12:02:46.733Z,58.47
2023-04-02T12:04:06.964Z,60.53
2023-04-02T12:05:36.925Z,57.29
2023-04-02T12:06:48.011Z,58.33
2023-04-02T12:08:12.762Z,57.03
2023-04-02T12:09:27.230Z,57.34
2023-04-02T12:10:32.818Z,56.72
2023-04-02T12:11:37.184Z,57.38
2023-04-02T12:12:39.290Z,58.10
2023-04-02T12:13:41.148Z,57.59
2023-04-02T12:14:45.884Z,57.16
2023-04-02T12:15:49.101Z,56.48
2023-04-02T12:16:50.916Z,55.13
2023-04-02T12:17:52.833Z,56.19
2023-04-02T12:18:55.100Z,57.59
2023-04-02T12:20:01.648Z,55.82
2023-04-02T12:21:04.390Z,56.60
2023-04-02T12:22:06.242Z,57.18
2023-04-02T12:23:17.448Z,55.38
2023-04-02T12:24:23.880Z,56.22
2023-04-02T12:25:33.860Z,55.38
2023-04-02T12:26:37.638Z,54.76
2023-04-02T12:27:42.615Z,54.85
2023-04-02T12:28:46.491Z,54.71
2023-04-02T12:29:50.038Z,56.65
2023-04-02T12:30:52.148Z,55.06
2023-04-02T12:31:55.981Z,55.35
2023-04-02T12:32:57.900Z,55.88
2023-04-02T12:33:59.600Z,55.96
2023-04-02T12:35:01.583Z,55.51
2023-04-02T12:36:25.138Z,56.10
2023-04-02T12:37:29.424Z,57.83
2023-04-02T12:38:34.767Z,58.13
2023-04-02T12:39:37.308Z,55.68
2023-04-02T12:40:38.964Z,55.66
2023-04-02T12:41:40.873Z,56.39
2023-04-02T12:42:42.493Z,55.42
2023-04-02T12:43:44.394Z,54.62
2023-04-02T12:44:49.501Z,56.32
2023-04-02T12:45:56.485Z,56.21
2023-04-02T12:46:58.866Z,55.58
2023-04-02T12:48:04.068Z,54.40
2023-04-02T12:49:08.003Z,54.01
2023-04-02T12:50:15.062Z,56.11
2023-04-02T12:51:17.660Z,54.20
2023-04-02T12:52:21.857Z,54.46
2023-04-02T12:53:37.786Z,53.94
2023-04-02T12:54:50.793Z,55.40
2023-04-02T12:55:53.113Z,56.10
2023-04-02T12:56:56.613Z,55.66
2023-04-02T12:58:00.188Z,54.62
2023-04-02T12:59:01.971Z,57.20
2023-04-02T13:00:36.769Z,55.11
2023-04-02T13:01:38.808Z,54.34
2023-04-02T13:02:45.004Z,53.24
2023-04-02T13:04:02.998Z,53.96
2023-04-02T13:05:04.769Z,55.83
2023-04-02T13:06:21.821Z,54.24
2023-04-02T13:07:25.838Z,54.48
2023-04-02T13:08:42.868Z,54.03
2023-04-02T13:09:54.918Z,54.69
2023-04-02T13:11:04.161Z,54.56
2023-04-02T13:12:07.107Z,56.45
2023-04-02T13:13:16.045Z,56.84
2023-04-02T13:14:20.540Z,57.18
2023-04-02T13:15:25.851Z,58.01
2023-04-02T13:16:34.741Z,60.66
2023-04-02T13:17:47.865Z,59.53
2023-04-02T13:18:50.366Z,59.90
2023-04-02T13:19:52.023Z,60.57
2023-04-02T13:21:23.658Z,61.36
2023-04-02T13:22:31.882Z,62.04
2023-04-02T13:23:36.469Z,63.34
2023-04-02T13:24:38.115Z,63.97
2023-04-02T13:25:39.759Z,62.21
2023-04-02T13:26:42.041Z,62.93
2023-04-02T13:27:43.813Z,64.38
2023-04-02T13:29:28.437Z,67.05
2023-04-02T13:30:30.594Z,70.12
2023-04-02T13:31:32.808Z,73.43
2023-04-02T13:32:34.553Z,75.88
2023-04-02T13:33:36.222Z,78.02
2023-04-02T13:34:38.104Z,80.35
2023-04-02T13:35:40.049Z,80.62
2023-04-02T13:36:41.673Z,82.10
2023-04-02T13:37:43.621Z,82.32
2023-04-02T13:38:45.500Z,82.48
2023-04-02T13:39:47.522Z,84.44
2023-04-02T13:40:49.231Z,86.04
2023-04-02T13:41:57.206Z,84.93
2023-04-02T13:42:59.021Z,85.47
2023-04-02T13:44:02.442Z,86.63
2023-04-02T13:45:04.779Z,85.15
2023-04-02T13:46:07.582Z,85.71
2023-04-02T13:47:14.036Z,85.19
2023-04-02T13:48:18.079Z,85.32
2023-04-02T13:49:20.404Z,84.94
2023-04-02T13:50:23.408Z,85.14
2023-04-02T13:51:46.467Z,84.58
2023-04-02T13:52:50.703Z,83.04
2023-04-02T13:53:56.857Z,83.96
2023-04-02T13:55:00.590Z,84.08
2023-04-02T13:56:02.760Z,83.28
2023-04-02T13:57:04.399Z,83.65
2023-04-02T13:58:06.588Z,82.41
2023-04-02T13:59:08.257Z,82.31
2023-04-02T14:00:10.843Z,84.18
2023-04-02T14:01:13.180Z,83.68
2023-04-02T14:02:18.239Z,81.36
2023-04-02T14:03:21.993Z,82.55
2023-04-02T14:04:30.329Z,83.48
2023-04-02T14:05:58.134Z,82.46
2023-04-02T14:07:21.740Z,83.05
2023-04-02T14:08:37.007Z,81.74
2023-04-02T14:09:54.989Z,79.90
2023-04-02T14:11:27.735Z,79.52
2023-04-02T14:12:32.081Z,80.83
2023-04-02T14:14:08.932Z,80.52
2023-04-02T14:15:22.413Z,80.81
2023-04-02T14:16:45.767Z,81.40
2023-04-02T14:17:47.593Z,81.10
2023-04-02T14:19:08.979Z,81.61
2023-04-02T14:20:17.296Z,81.55
2023-04-02T14:21:35.686Z,80.06
2023-04-02T14:23:05.129Z,81.15
2023-04-02T14:24:26.356Z,80.78
2023-04-02T14:25:39.656Z,80.89
2023-04-02T14:27:06.355Z,81.87
2023-04-02T14:28:23.555Z,82.04
2023-04-02T14:29:58.893Z,81.63
2023-04-02T14:31:38.883Z,80.02
2023-04-02T14:32:43.310Z,79.30
2023-04-02T14:34:00.471Z,80.52
2023-04-02T14:35:13.374Z,80.55
2023-04-02T14:36:36.605Z,79.90
2023-04-02T14:38:02.337Z,79.78
2023-04-02T14:39:09.814Z,80.32
2023-04-02T14:40:23.641Z,81.29
2023-04-02T14:41:42.639Z,80.67
2023-04-02T14:42:50.946Z,80.64
2023-04-02T14:44:02.191Z,80.64
2023-04-02T14:45:13.832Z,80.28
2023-04-02T14:46:15.581Z,82.23
2023-04-02T14:47:31.590Z,83.88
2023-04-02T14:48:56.546Z,85.32
2023-04-02T14:50:09.061Z,86.38
2023-04-02T14:51:35.119Z,87.27
2023-04-02T14:52:37.683Z,87.62